Time;durP1;ratioP1;P1;durP2;ratioP2;P2;SDS_P1;SDS_P2;PMS_P1;PMS_P2;Temp;Humidity;BMP_temperature;BMP_pressure;BME280_temperature;BME280_humidity;BME280_pressure;Samples;Min_cycle;Max_cycle;Signal;HPM_P1;HPM_P2
2022/09/10 00:01:49;;;;;;;8.45;2.50;;;13.80;99.90;;;;;;5012681;28;20530;-60
2022/09/10 00:04:15;;;;;;;5.93;2.17;;;13.70;99.90;;;;;;5012994;28;20399;-60
2022/09/10 00:06:42;;;;;;;4.47;2.08;;;13.60;99.90;;;;;;5012494;28;20105;-60
2022/09/10 00:09:08;;;;;;;6.88;2.17;;;13.70;99.90;;;;;;5012583;28;20484;-60
2022/09/10 00:11:37;;;;;;;7.82;2.38;;;13.70;99.90;;;;;;5013162;28;20026;-59
2022/09/10 00:14:04;;;;;;;6.40;2.60;;;13.50;99.90;;;;;;5012879;28;20045;-59
2022/09/10 00:16:31;;;;;;;9.57;2.50;;;13.40;99.90;;;;;;5012680;28;20092;-59
2022/09/10 00:18:57;;;;;;;4.32;2.00;;;13.50;99.90;;;;;;5012593;28;20424;-59
2022/09/10 00:21:23;;;;;;;7.97;2.15;;;13.30;99.90;;;;;;5012160;28;20050;-59
2022/09/10 00:23:49;;;;;;;7.57;2.33;;;13.20;99.90;;;;;;5012931;28;20026;-59
2022/09/10 00:26:20;;;;;;;7.28;2.05;;;13.40;99.90;;;;;;5012054;28;20080;-60
2022/09/10 00:28:48;;;;;;;7.72;2.15;;;13.50;99.90;;;;;;5011685;28;20514;-59
2022/09/10 00:31:14;;;;;;;7.38;2.25;;;13.40;99.90;;;;;;5012775;28;20025;-59
2022/09/10 00:33:40;;;;;;;6.55;2.20;;;13.30;99.90;;;;;;5012498;28;20041;-59
2022/09/10 00:36:15;;;;;;;9.10;2.47;;;13.30;99.90;;;;;;5027464;28;20022;-59
2022/09/10 00:38:40;;;;;;;7.60;2.05;;;13.30;99.90;;;;;;5012983;28;20069;-59
2022/09/10 00:41:07;;;;;;;6.32;1.83;;;13.50;99.90;;;;;;5049453;28;20481;-59
2022/09/10 00:44:07;;;;;;;7.90;2.13;;;13.60;99.90;;;;;;5051857;28;20040;-59
2022/09/10 00:46:47;;;;;;;5.65;2.03;;;13.40;99.90;;;;;;5029638;28;20087;-59
2022/09/10 00:49:27;;;;;;;7.95;2.22;;;13.10;99.90;;;;;;5029656;28;20437;-59
2022/09/10 00:51:53;;;;;;;9.30;2.10;;;13.00;99.90;;;;;;5011442;28;20033;-59
2022/09/10 00:54:22;;;;;;;9.82;2.42;;;13.10;99.90;;;;;;5009629;28;20026;-59
2022/09/10 00:56:51;;;;;;;5.72;2.00;;;13.20;99.90;;;;;;5009891;28;20033;-59
2022/09/10 00:59:20;;;;;;;8.63;2.10;;;13.10;99.90;;;;;;5009831;28;20065;-59
2022/09/10 01:01:48;;;;;;;6.60;2.30;;;13.20;99.90;;;;;;5010116;28;20018;-59
2022/09/10 01:04:14;;;;;;;7.15;2.15;;;13.20;99.90;;;;;;5009727;28;20038;-59
2022/09/10 01:06:43;;;;;;;8.50;2.38;;;13.20;99.90;;;;;;5009132;28;20046;-59
2022/09/10 01:09:09;;;;;;;8.40;2.20;;;13.30;99.90;;;;;;5010078;28;20038;-59
2022/09/10 01:11:44;;;;;;;5.70;2.10;;;13.50;99.90;;;;;;5009757;28;20515;-59
2022/09/10 01:14:22;;;;;;;6.38;1.95;;;13.40;99.90;;;;;;5009654;28;20076;-59
2022/09/10 01:17:15;;;;;;;8.18;2.40;;;13.30;99.90;;;;;;4993274;28;20042;-59
2022/09/10 01:20:09;;;;;;;6.10;2.38;;;13.10;99.90;;;;;;5009196;28;20511;-59
2022/09/10 01:22:38;;;;;;;7.50;2.60;;;13.30;99.90;;;;;;5011320;28;20426;-60
2022/09/10 01:25:56;;;;;;;9.35;2.25;;;13.60;99.90;;;;;;5011748;28;20076;-59
2022/09/10 01:28:51;;;;;;;7.85;2.50;;;13.60;99.90;;;;;;4990176;28;20422;-59
2022/09/10 01:31:26;;;;;;;6.40;2.53;;;13.60;99.90;;;;;;4988082;28;20040;-59
2022/09/10 01:34:01;;;;;;;7.43;2.25;;;13.50;99.90;;;;;;4989671;28;20035;-59
2022/09/10 01:36:32;;;;;;;10.05;2.72;;;13.60;99.90;;;;;;4989848;28;20027;-59
2022/09/10 01:38:59;;;;;;;6.72;2.42;;;13.50;99.90;;;;;;4994233;28;20510;-59
2022/09/10 01:41:27;;;;;;;10.00;2.53;;;13.50;99.90;;;;;;5033449;28;20029;-60
2022/09/10 01:43:53;;;;;;;8.32;3.03;;;13.50;99.90;;;;;;5033014;28;20494;-59
2022/09/10 01:46:28;;;;;;;6.47;2.67;;;13.50;99.90;;;;;;5018109;28;20034;-60
2022/09/10 01:49:17;;;;;;;9.90;2.60;;;13.40;99.90;;;;;;5001033;28;20052;-60
2022/09/10 01:51:57;;;;;;;7.90;2.90;;;13.30;99.90;;;;;;5008602;28;20534;-60
2022/09/10 01:54:44;;;;;;;7.85;3.05;;;13.20;99.90;;;;;;5004683;28;20498;-60
2022/09/10 01:57:32;;;;;;;9.30;2.70;;;13.40;99.90;;;;;;5003557;28;20052;-60
2022/09/10 02:00:13;;;;;;;7.22;2.50;;;13.50;99.90;;;;;;5003003;28;20507;-60
2022/09/10 02:02:47;;;;;;;6.18;2.20;;;13.40;99.90;;;;;;5000228;28;20052;-60
2022/09/10 02:05:16;;;;;;;6.72;2.60;;;13.30;99.90;;;;;;5019915;28;20095;-60
2022/09/10 02:07:44;;;;;;;4.80;2.20;;;13.20;99.90;;;;;;5024847;28;20010;-60
2022/09/10 02:10:10;;;;;;;8.68;2.70;;;13.20;99.90;;;;;;5023603;28;20491;-60
2022/09/10 02:12:36;;;;;;;7.50;2.72;;;13.40;99.90;;;;;;5023069;28;20136;-60
2022/09/10 02:15:03;;;;;;;8.95;2.83;;;13.40;99.90;;;;;;5024573;28;20075;-60
2022/09/10 02:17:35;;;;;;;8.30;2.60;;;13.60;99.90;;;;;;5022966;28;20022;-60
2022/09/10 02:20:04;;;;;;;8.40;2.45;;;13.50;99.90;;;;;;5022597;28;20028;-61
2022/09/10 02:22:35;;;;;;;7.40;2.47;;;13.50;99.90;;;;;;5023726;28;20509;-60
2022/09/10 02:25:03;;;;;;;8.93;2.90;;;13.50;99.90;;;;;;5024348;28;20045;-60
2022/09/10 02:27:29;;;;;;;9.00;2.35;;;13.30;99.90;;;;;;5023191;28;20021;-59
2022/09/10 02:29:57;;;;;;;7.07;2.65;;;13.40;99.90;;;;;;5023142;28;20026;-60
2022/09/10 02:32:23;;;;;;;10.80;2.65;;;13.40;99.90;;;;;;5022652;28;20025;-60
2022/09/10 02:34:49;;;;;;;7.85;2.50;;;13.30;99.90;;;;;;5021673;28;20084;-60
2022/09/10 02:37:18;;;;;;;7.10;2.40;;;13.30;99.90;;;;;;5022769;28;20113;-60
2022/09/10 02:39:45;;;;;;;6.07;2.35;;;13.50;99.90;;;;;;5028387;28;20109;-60
2022/09/10 02:42:14;;;;;;;5.90;2.35;;;13.50;99.90;;;;;;5023402;28;20030;-61
2022/09/10 02:44:40;;;;;;;7.97;2.28;;;13.60;99.90;;;;;;5022068;28;20101;-60
2022/09/10 02:47:06;;;;;;;8.25;3.13;;;13.50;99.90;;;;;;5023291;28;20553;-60
2022/09/10 02:49:33;;;;;;;9.63;2.70;;;13.50;99.90;;;;;;5022602;28;20014;-59
2022/09/10 02:52:01;;;;;;;8.18;2.90;;;13.40;99.90;;;;;;5027112;28;20091;-60
2022/09/10 02:54:27;;;;;;;11.30;3.13;;;13.40;99.90;;;;;;5024583;28;20121;-60
2022/09/10 02:56:54;;;;;;;8.07;2.65;;;13.30;99.90;;;;;;5023140;28;20101;-60
2022/09/10 02:59:19;;;;;;;8.38;2.60;;;13.40;99.90;;;;;;5020348;28;20041;-60
2022/09/10 03:01:47;;;;;;;7.35;3.00;;;13.30;99.90;;;;;;5023658;28;20025;-60
2022/09/10 03:04:14;;;;;;;7.47;3.08;;;13.20;99.90;;;;;;5022822;28;20085;-60
2022/09/10 03:06:40;;;;;;;8.55;3.25;;;13.20;99.90;;;;;;5021711;28;20025;-60
2022/09/10 03:09:06;;;;;;;9.05;2.80;;;13.20;99.90;;;;;;5023014;28;20033;-60
2022/09/10 03:11:31;;;;;;;6.35;2.67;;;13.30;99.90;;;;;;5023031;28;20014;-60
2022/09/10 03:13:57;;;;;;;5.30;2.40;;;13.50;99.90;;;;;;5021840;28;20581;-60
2022/09/10 03:16:23;;;;;;;6.40;2.40;;;13.40;99.90;;;;;;5023029;28;20021;-60
2022/09/10 03:18:50;;;;;;;9.90;2.60;;;13.40;99.90;;;;;;5022262;28;20034;-60
2022/09/10 03:21:21;;;;;;;8.65;2.80;;;13.50;99.90;;;;;;5021358;28;20394;-59
2022/09/10 03:23:48;;;;;;;5.28;2.50;;;13.60;99.90;;;;;;5023682;28;20053;-60
2022/09/10 03:26:17;;;;;;;7.07;2.60;;;13.70;99.90;;;;;;5021940;28;20029;-60
2022/09/10 03:28:43;;;;;;;6.72;2.95;;;13.70;99.90;;;;;;5024365;28;20025;-60
2022/09/10 03:31:10;;;;;;;6.35;2.70;;;13.90;99.90;;;;;;5021927;28;20057;-59
2022/09/10 03:33:36;;;;;;;8.73;2.90;;;13.70;99.90;;;;;;5022635;28;20343;-59
2022/09/10 03:36:03;;;;;;;7.82;3.00;;;13.70;99.90;;;;;;5021065;28;20029;-59
2022/09/10 03:38:29;;;;;;;10.48;3.65;;;13.80;99.90;;;;;;5022033;28;20102;-59
2022/09/10 03:40:55;;;;;;;7.45;3.40;;;13.80;99.90;;;;;;5026399;28;20538;-59
2022/09/10 03:43:21;;;;;;;9.38;3.50;;;13.70;99.90;;;;;;5021138;28;20029;-59
2022/09/10 03:45:51;;;;;;;7.20;3.45;;;13.80;99.90;;;;;;5022050;28;20493;-60
2022/09/10 03:48:21;;;;;;;7.90;3.60;;;13.80;99.90;;;;;;5022544;28;20045;-60
2022/09/10 03:50:48;;;;;;;9.50;4.20;;;13.80;99.90;;;;;;5023915;28;20026;-60
2022/09/10 03:53:15;;;;;;;7.75;3.85;;;13.70;99.90;;;;;;5026598;28;20043;-60
2022/09/10 03:55:45;;;;;;;9.20;4.30;;;13.70;99.90;;;;;;5022541;28;20032;-60
2022/09/10 03:58:11;;;;;;;9.77;4.28;;;13.80;99.90;;;;;;5021572;28;20034;-59
2022/09/10 04:00:38;;;;;;;9.90;3.90;;;13.70;99.90;;;;;;5020743;28;20060;-60
2022/09/10 04:03:04;;;;;;;9.48;4.15;;;13.70;99.90;;;;;;5023012;28;20036;-60
2022/09/10 04:05:31;;;;;;;7.10;3.55;;;13.80;99.90;;;;;;5021654;28;20025;-60
2022/09/10 04:07:57;;;;;;;7.28;3.63;;;13.80;99.90;;;;;;5022654;28;20518;-60
2022/09/10 04:10:24;;;;;;;8.90;4.03;;;13.70;99.90;;;;;;5023186;28;20026;-60
2022/09/10 04:12:52;;;;;;;11.07;3.72;;;13.80;99.90;;;;;;5020837;28;20537;-60
2022/09/10 04:15:18;;;;;;;9.15;4.38;;;13.90;99.90;;;;;;5021078;28;20406;-60
2022/09/10 04:17:46;;;;;;;8.93;4.05;;;13.70;99.90;;;;;;5022826;28;20022;-60
2022/09/10 04:20:11;;;;;;;7.90;3.85;;;13.80;99.90;;;;;;5021336;28;20391;-60
2022/09/10 04:22:38;;;;;;;8.02;3.72;;;13.80;99.90;;;;;;5022048;28;20029;-60
2022/09/10 04:25:04;;;;;;;8.35;3.92;;;13.80;99.90;;;;;;5022528;28;20036;-60
2022/09/10 04:27:30;;;;;;;9.60;4.28;;;13.70;99.90;;;;;;5020550;28;20018;-59
2022/09/10 04:29:56;;;;;;;11.32;4.00;;;13.70;99.90;;;;;;5019326;28;20405;-59
2022/09/10 04:32:21;;;;;;;9.18;4.43;;;13.60;99.90;;;;;;5022437;28;20029;-60
2022/09/10 04:34:47;;;;;;;10.95;4.35;;;13.60;99.90;;;;;;5020620;28;20029;-60
2022/09/10 04:37:13;;;;;;;10.85;4.65;;;13.60;99.90;;;;;;5020957;28;20175;-60
2022/09/10 04:39:38;;;;;;;10.05;4.13;;;13.60;99.90;;;;;;5026248;28;20064;-59
2022/09/10 04:42:05;;;;;;;10.45;4.97;;;13.60;99.90;;;;;;5019592;28;20486;-59
2022/09/10 04:44:31;;;;;;;10.40;4.75;;;13.80;99.90;;;;;;5020777;28;20026;-59
2022/09/10 04:46:57;;;;;;;11.27;4.68;;;13.70;99.90;;;;;;5021451;28;20512;-60
2022/09/10 04:49:23;;;;;;;9.38;4.30;;;13.70;99.90;;;;;;5019671;28;20022;-60
2022/09/10 04:51:49;;;;;;;13.02;4.85;;;13.80;99.90;;;;;;5025710;28;20444;-60
2022/09/10 04:54:15;;;;;;;9.07;4.25;;;13.80;99.90;;;;;;5025005;28;20105;-60
2022/09/10 04:56:42;;;;;;;8.13;4.40;;;13.90;99.90;;;;;;5021314;28;20017;-60
2022/09/10 04:59:09;;;;;;;11.25;4.75;;;13.80;99.90;;;;;;5020059;28;20041;-60
2022/09/10 05:01:35;;;;;;;9.57;4.47;;;13.70;99.90;;;;;;5019899;28;20098;-59
2022/09/10 05:04:02;;;;;;;9.77;4.20;;;13.60;99.90;;;;;;5021556;28;20041;-59
2022/09/10 05:06:28;;;;;;;8.20;4.30;;;13.50;99.90;;;;;;5020234;28;20022;-61
2022/09/10 05:08:54;;;;;;;8.27;4.78;;;13.70;99.90;;;;;;5020193;28;20067;-60
2022/09/10 05:11:20;;;;;;;11.55;4.65;;;13.60;99.90;;;;;;5020955;28;20071;-61
2022/09/10 05:13:46;;;;;;;11.20;4.95;;;13.50;99.90;;;;;;5019603;28;20030;-61
2022/09/10 05:16:12;;;;;;;7.28;4.35;;;13.40;99.90;;;;;;5020271;28;20014;-60
2022/09/10 05:18:38;;;;;;;9.55;4.63;;;13.30;99.90;;;;;;5021176;28;20648;-60
2022/09/10 05:21:04;;;;;;;8.80;4.20;;;13.20;99.90;;;;;;5018205;28;20100;-60
2022/09/10 05:23:30;;;;;;;7.60;4.30;;;13.20;99.90;;;;;;5020569;28;20024;-60
2022/09/10 05:25:56;;;;;;;11.57;4.65;;;13.10;99.90;;;;;;5021071;28;20034;-60
2022/09/10 05:28:23;;;;;;;6.82;4.22;;;13.20;99.90;;;;;;5019309;28;20483;-60
2022/09/10 05:30:49;;;;;;;7.78;4.10;;;13.10;99.90;;;;;;5020346;28;20025;-59
2022/09/10 05:33:15;;;;;;;7.72;4.03;;;13.20;99.90;;;;;;5021049;28;20096;-59
2022/09/10 05:35:41;;;;;;;8.95;4.30;;;13.30;99.90;;;;;;5018698;28;20054;-59
2022/09/10 05:38:10;;;;;;;14.02;4.93;;;13.40;99.90;;;;;;5020378;28;20087;-60
2022/09/10 05:40:36;;;;;;;12.25;4.57;;;13.30;99.90;;;;;;5025353;28;20025;-60
2022/09/10 05:43:02;;;;;;;10.35;4.50;;;13.40;99.90;;;;;;5031270;28;20071;-60
2022/09/10 05:45:28;;;;;;;7.97;4.47;;;13.30;99.90;;;;;;5031195;28;20482;-60
2022/09/10 05:47:53;;;;;;;11.55;4.72;;;13.20;99.90;;;;;;5031208;28;20044;-58
2022/09/10 05:50:19;;;;;;;8.82;4.40;;;13.20;99.90;;;;;;5031598;28;20628;-58
2022/09/10 05:52:45;;;;;;;11.48;4.85;;;13.20;99.90;;;;;;5016108;28;20061;-60
2022/09/10 05:55:11;;;;;;;8.23;4.82;;;13.30;99.90;;;;;;5011467;28;20368;-60
2022/09/10 05:57:39;;;;;;;9.02;4.50;;;13.30;99.90;;;;;;5011312;28;20224;-60
2022/09/10 06:00:08;;;;;;;9.52;5.13;;;13.30;99.90;;;;;;5011996;28;20501;-60
2022/09/10 06:02:34;;;;;;;10.73;4.60;;;13.30;99.90;;;;;;5028658;28;20021;-59
2022/09/10 06:05:00;;;;;;;9.45;4.50;;;13.50;99.90;;;;;;5031469;28;20037;-59
2022/09/10 06:07:30;;;;;;;7.93;4.28;;;13.70;99.90;;;;;;5030570;28;20048;-59
2022/09/10 06:09:59;;;;;;;12.98;5.05;;;13.90;99.90;;;;;;5030743;28;20022;-59
2022/09/10 06:12:25;;;;;;;11.95;4.20;;;14.10;99.90;;;;;;5030892;28;20099;-59
2022/09/10 06:14:51;;;;;;;10.35;4.10;;;15.00;99.90;;;;;;5030707;28;20036;-59
2022/09/10 06:17:18;;;;;;;6.47;4.15;;;15.60;99.90;;;;;;5030962;28;20025;-59
2022/09/10 06:19:45;;;;;;;8.13;3.55;;;16.50;99.90;;;;;;5030878;28;20037;-60
2022/09/10 06:22:11;;;;;;;8.88;3.50;;;17.80;99.90;;;;;;5031207;28;20103;-61
2022/09/10 06:24:37;;;;;;;9.88;3.75;;;18.60;99.90;;;;;;5029183;28;20060;-61
2022/09/10 06:27:04;;;;;;;8.63;3.72;;;17.30;99.90;;;;;;5033799;28;20044;-61
2022/09/10 06:29:32;;;;;;;8.15;3.40;;;17.00;99.90;;;;;;5034616;28;20037;-61
2022/09/10 06:31:58;;;;;;;6.10;3.25;;;17.00;99.90;;;;;;5034418;28;20025;-60
2022/09/10 06:34:24;;;;;;;7.53;3.38;;;17.00;99.90;;;;;;5034524;28;20038;-60
2022/09/10 06:36:50;;;;;;;7.85;3.00;;;16.60;99.90;;;;;;5033962;28;20402;-60
2022/09/10 06:39:16;;;;;;;6.50;2.90;;;17.50;99.90;;;;;;5037442;28;20040;-60
2022/09/10 06:41:42;;;;;;;8.00;3.13;;;19.20;99.90;;;;;;5054157;28;20025;-60
2022/09/10 06:44:09;;;;;;;6.97;2.70;;;20.60;99.90;;;;;;5054047;28;20060;-60
2022/09/10 06:46:35;;;;;;;10.82;3.17;;;21.80;99.90;;;;;;5054499;28;20045;-59
2022/09/10 06:49:03;;;;;;;7.53;2.90;;;22.00;99.90;;;;;;5053666;28;20029;-59
2022/09/10 06:51:29;;;;;;;6.50;2.30;;;22.00;99.90;;;;;;5040350;28;20105;-60
2022/09/10 06:53:55;;;;;;;6.72;2.70;;;21.80;99.90;;;;;;5022334;28;20060;-60
2022/09/10 06:56:21;;;;;;;5.20;2.63;;;21.30;99.90;;;;;;5014262;28;20032;-60
2022/09/10 06:58:47;;;;;;;7.55;2.50;;;23.30;99.90;;;;;;5013853;28;20033;-58
2022/09/10 07:01:17;;;;;;;6.53;2.40;;;;;;;;;;5013217;28;20034;-58
2022/09/10 07:03:44;;;;;;;5.78;2.40;;;23.90;99.90;;;;;;5013420;28;20120;-58
2022/09/10 07:06:15;;;;;;;6.75;2.25;;;23.90;99.90;;;;;;5026757;28;20030;-57
2022/09/10 07:08:41;;;;;;;8.05;2.35;;;24.90;99.90;;;;;;5033428;28;20033;-58
2022/09/10 07:11:11;;;;;;;9.65;2.70;;;26.00;99.90;;;;;;5031591;28;20486;-58
2022/09/10 07:13:39;;;;;;;5.97;2.30;;;27.00;99.90;;;;;;5033417;28;20401;-58
2022/09/10 07:16:05;;;;;;;7.15;2.35;;;27.00;99.90;;;;;;5033675;28;20026;-58
2022/09/10 07:18:32;;;;;;;7.43;2.15;;;28.60;99.90;;;;;;5033163;28;20410;-58
2022/09/10 07:21:12;;;;;;;5.00;2.03;;;28.50;99.90;;;;;;5033153;28;20119;-58
2022/09/10 07:23:41;;;;;;;5.28;1.95;;;28.50;99.90;;;;;;5033175;28;20025;-60
2022/09/10 07:26:12;;;;;;;7.50;1.90;;;29.70;99.90;;;;;;5031846;28;20034;-58
2022/09/10 07:28:41;;;;;;;5.38;2.08;;;29.50;99.90;;;;;;5029323;28;20064;-58
2022/09/10 07:31:12;;;;;;;16.13;2.72;;;28.40;99.90;;;;;;5032446;28;20029;-58
2022/09/10 07:33:38;;;;;;;10.02;2.30;;;28.60;99.90;;;;;;5032074;28;20405;-58
2022/09/10 07:36:05;;;;;;;6.65;2.00;;;29.40;99.90;;;;;;5032243;28;20025;-58
2022/09/10 07:38:31;;;;;;;6.93;1.90;;;29.40;99.90;;;;;;5033017;28;20083;-58
2022/09/10 07:41:00;;;;;;;7.97;2.10;;;29.10;99.90;;;;;;5047252;28;20108;-58
2022/09/10 07:43:26;;;;;;;8.50;2.30;;;27.50;99.90;;;;;;5032944;28;20035;-58
2022/09/10 07:45:52;;;;;;;13.68;3.20;;;28.00;99.90;;;;;;5031346;28;20525;-58
2022/09/10 07:48:17;;;;;;;10.25;2.30;;;28.10;99.90;;;;;;5032922;28;20029;-58
2022/09/10 07:50:44;;;;;;;8.35;2.28;;;29.10;99.90;;;;;;5031227;28;20063;-58
2022/09/10 07:53:10;;;;;;;5.85;2.30;;;28.60;99.90;;;;;;5022993;28;20049;-58
2022/09/10 07:55:36;;;;;;;4.70;2.03;;;28.30;99.90;;;;;;5012587;28;20018;-58
2022/09/10 07:58:02;;;;;;;6.10;2.15;;;30.60;99.90;;;;;;5015695;28;20060;-58
2022/09/10 08:00:28;;;;;;;5.05;2.50;;;29.40;99.90;;;;;;5032678;28;20433;-58
2022/09/10 08:02:54;;;;;;;4.75;2.35;;;31.50;97.80;;;;;;5033015;28;20029;-58
2022/09/10 08:05:20;;;;;;;4.28;1.90;;;32.70;97.30;;;;;;5032216;28;20497;-58
2022/09/10 08:07:46;;;;;;;5.57;2.20;;;33.60;96.70;;;;;;5031866;28;20041;-59
2022/09/10 08:10:12;;;;;;;6.35;2.40;;;35.10;95.20;;;;;;5032410;28;20377;-60
2022/09/10 08:12:42;;;;;;;6.28;2.15;;;35.90;94.20;;;;;;5023501;28;20505;-58
2022/09/10 08:15:09;;;;;;;5.15;2.10;;;32.70;95.30;;;;;;5032151;28;20026;-58
2022/09/10 08:17:35;;;;;;;7.60;2.72;;;28.50;99.20;;;;;;5032069;28;20037;-60
2022/09/10 08:20:07;;;;;;;7.35;2.20;;;28.30;99.90;;;;;;5031844;28;20445;-58
2022/09/10 08:22:33;;;;;;;8.43;2.58;;;26.90;99.90;;;;;;5031722;28;20076;-57
2022/09/10 08:24:59;;;;;;;4.95;2.03;;;28.90;99.90;;;;;;5032156;28;20029;-58
2022/09/10 08:27:25;;;;;;;14.15;3.22;;;28.20;99.90;;;;;;5024292;28;20036;-58
2022/09/10 08:29:52;;;;;;;8.57;2.58;;;29.80;99.00;;;;;;5029986;28;20033;-59
2022/09/10 08:32:17;;;;;;;4.03;1.95;;;28.30;99.90;;;;;;5032083;28;20068;-58
2022/09/10 08:34:43;;;;;;;7.85;2.22;;;28.20;99.80;;;;;;5031458;28;20494;-59
2022/09/10 08:37:10;;;;;;;7.28;2.63;;;30.20;99.70;;;;;;5030391;28;20022;-59
2022/09/10 08:39:35;;;;;;;5.00;2.20;;;32.60;96.70;;;;;;5038176;28;20041;-59
2022/09/10 08:42:17;;;;;;;5.68;2.13;;;33.90;95.10;;;;;;5050260;28;20021;-59
2022/09/10 08:44:51;;;;;;;9.05;2.42;;;34.80;94.40;;;;;;5052280;28;20104;-60
2022/09/10 08:47:23;;;;;;;5.82;2.33;;;34.80;93.60;;;;;;5051597;28;20020;-59
2022/09/10 08:50:05;;;;;;;5.85;2.42;;;34.40;93.90;;;;;;5051129;28;20116;-59
2022/09/10 08:52:53;;;;;;;5.32;2.10;;;34.80;93.90;;;;;;5051796;28;20021;-59
2022/09/10 08:55:18;;;;;;;5.55;1.90;;;34.30;93.90;;;;;;5051670;28;20084;-59
2022/09/10 08:58:03;;;;;;;6.85;2.00;;;35.40;92.70;;;;;;5051669;28;20075;-59
2022/09/10 09:00:35;;;;;;;6.18;1.98;;;34.40;92.90;;;;;;5051719;28;20473;-59
2022/09/10 09:03:11;;;;;;;5.00;2.13;;;35.10;92.90;;;;;;5051130;28;20532;-58
2022/09/10 09:05:48;;;;;;;7.88;2.05;;;34.40;93.10;;;;;;5051971;28;20029;-59
2022/09/10 09:08:18;;;;;;;8.20;2.10;;;34.60;92.60;;;;;;5051856;28;20075;-59
2022/09/10 09:10:48;;;;;;;5.60;1.80;;;34.90;92.60;;;;;;5051498;28;20508;-59
2022/09/10 09:13:55;;;;;;;5.15;1.45;;;34.20;93.20;;;;;;5051646;28;20025;-59
2022/09/10 09:16:37;;;;;;;6.55;1.75;;;31.50;94.80;;;;;;5051090;28;20029;-59
2022/09/10 09:19:17;;;;;;;7.03;1.98;;;32.70;94.30;;;;;;5050959;28;20060;-59
2022/09/10 09:21:54;;;;;;;4.85;1.70;;;34.70;93.00;;;;;;5051491;28;20120;-59
2022/09/10 09:24:52;;;;;;;4.60;1.60;;;35.70;91.60;;;;;;5051141;28;20055;-59
2022/09/10 09:27:19;;;;;;;3.85;1.50;;;34.60;92.60;;;;;;5047653;28;20048;-59
2022/09/10 09:29:54;;;;;;;6.95;1.80;;;32.40;93.80;;;;;;5051473;28;20025;-59
2022/09/10 09:32:22;;;;;;;4.80;1.80;;;32.90;95.20;;;;;;5050731;28;20029;-59
2022/09/10 09:34:49;;;;;;;5.60;1.90;;;30.80;95.60;;;;;;5051456;28;20021;-59
2022/09/10 09:37:22;;;;;;;6.35;1.90;;;33.10;94.70;;;;;;5051651;28;20078;-58
2022/09/10 09:40:07;;;;;;;3.75;1.95;;;32.30;94.30;;;;;;5051642;28;20405;-59
2022/09/10 09:43:00;;;;;;;5.72;2.03;;;30.90;94.90;;;;;;5051349;28;20022;-58
2022/09/10 09:45:37;;;;;;;5.85;2.20;;;29.40;96.50;;;;;;5051281;28;20531;-59
2022/09/10 09:48:08;;;;;;;4.97;2.20;;;27.80;98.40;;;;;;5050808;28;20031;-59
2022/09/10 09:50:38;;;;;;;5.28;2.15;;;27.50;98.70;;;;;;5051110;28;20079;-59
2022/09/10 09:53:04;;;;;;;5.22;1.85;;;27.70;99.20;;;;;;5051544;28;20229;-59
2022/09/10 09:55:41;;;;;;;4.25;2.00;;;29.50;99.30;;;;;;5051283;28;20108;-59
2022/09/10 09:58:25;;;;;;;4.75;1.80;;;31.50;96.80;;;;;;5051109;28;20033;-58
2022/09/10 10:01:04;;;;;;;6.15;2.08;;;31.10;95.80;;;;;;5053877;28;20028;-58
2022/09/10 10:04:00;;;;;;;4.05;1.75;;;32.90;95.40;;;;;;5054958;28;20032;-59
2022/09/10 10:06:32;;;;;;;7.35;2.10;;;33.80;94.50;;;;;;5054818;28;20029;-58
2022/09/10 10:09:06;;;;;;;5.10;2.13;;;31.90;95.90;;;;;;5054644;28;20040;-59
2022/09/10 10:12:03;;;;;;;5.47;2.20;;;31.30;96.00;;;;;;5054761;28;20043;-59
2022/09/10 10:14:37;;;;;;;3.67;2.05;;;32.70;95.10;;;;;;5055163;28;20025;-59
2022/09/10 10:17:40;;;;;;;7.03;2.80;;;32.90;94.90;;;;;;5054035;28;20510;-59
2022/09/10 10:20:16;;;;;;;4.67;2.40;;;32.90;94.80;;;;;;5054357;28;20048;-59
2022/09/10 10:22:44;;;;;;;4.97;2.10;;;30.60;95.70;;;;;;5054567;28;20036;-59
2022/09/10 10:25:32;;;;;;;6.43;2.30;;;29.90;96.70;;;;;;5054568;28;20401;-58
2022/09/10 10:27:57;;;;;;;5.53;2.22;;;27.50;98.20;;;;;;5054665;28;20024;-59
2022/09/10 10:30:24;;;;;;;4.68;1.90;;;26.70;99.90;;;;;;5054039;28;20059;-59
2022/09/10 10:32:56;;;;;;;6.28;1.85;;;27.30;99.90;;;;;;5054224;28;20112;-59
2022/09/10 10:35:25;;;;;;;3.57;1.87;;;27.80;99.10;;;;;;5054919;28;20031;-59
2022/09/10 10:38:21;;;;;;;4.18;2.00;;;28.90;98.30;;;;;;5054255;28;20378;-59
2022/09/10 10:41:10;;;;;;;4.72;2.00;;;27.20;99.70;;;;;;5053998;28;20025;-59
2022/09/10 10:43:56;;;;;;;5.90;2.30;;;27.40;99.40;;;;;;5053976;28;20102;-59
2022/09/10 10:46:33;;;;;;;6.28;2.40;;;28.80;98.50;;;;;;5052461;28;20037;-59
2022/09/10 10:49:56;;;;;;;4.57;2.17;;;28.50;98.40;;;;;;5054135;28;20013;-59
2022/09/10 10:52:50;;;;;;;4.07;2.17;;;28.00;98.80;;;;;;5031581;28;20025;-58
2022/09/10 10:55:36;;;;;;;4.63;2.38;;;27.30;99.50;;;;;;5031666;28;20080;-59
2022/09/10 10:58:34;;;;;;;4.63;2.00;;;27.90;98.60;;;;;;5031596;28;20030;-59
2022/09/10 11:01:12;;;;;;;6.45;2.20;;;28.30;98.70;;;;;;5022799;28;20108;-59
2022/09/10 11:03:43;;;;;;;3.08;1.80;;;29.00;98.00;;;;;;5031338;28;20148;-59
2022/09/10 11:06:16;;;;;;;6.65;2.10;;;29.30;97.40;;;;;;5031895;28;20057;-59
2022/09/10 11:08:57;;;;;;;6.80;2.17;;;29.30;97.90;;;;;;5031539;28;20127;-59
2022/09/10 11:11:43;;;;;;;6.47;2.42;;;28.80;98.20;;;;;;5030572;28;20558;-59
2022/09/10 11:14:50;;;;;;;6.93;2.25;;;29.60;97.30;;;;;;5030939;28;20053;-59
2022/09/10 11:17:50;;;;;;;5.50;2.13;;;29.20;97.40;;;;;;5030923;28;20033;-59
2022/09/10 11:20:19;;;;;;;3.80;1.77;;;29.70;96.80;;;;;;5029488;28;20053;-59
2022/09/10 11:22:58;;;;;;;4.97;2.17;;;29.00;97.60;;;;;;5038921;28;20086;-59
2022/09/10 11:25:33;;;;;;;5.22;2.30;;;29.20;97.40;;;;;;5053308;28;20039;-59
2022/09/10 11:28:16;;;;;;;4.32;2.15;;;28.60;98.00;;;;;;5053250;28;20028;-59
2022/09/10 11:30:48;;;;;;;3.58;2.00;;;28.60;97.70;;;;;;5053659;28;20025;-59
2022/09/10 11:33:26;;;;;;;6.13;2.10;;;29.00;97.80;;;;;;5053010;28;20155;-59
2022/09/10 11:36:01;;;;;;;5.72;2.10;;;28.00;98.20;;;;;;5053185;28;20029;-59
2022/09/10 11:38:42;;;;;;;3.50;1.80;;;28.70;98.10;;;;;;5053151;28;20120;-59
2022/09/10 11:41:28;;;;;;;5.25;1.92;;;28.90;98.30;;;;;;5051584;28;20032;-59
2022/09/10 11:44:13;;;;;;;3.53;2.20;;;28.80;97.90;;;;;;5052973;28;20039;-60
2022/09/10 11:47:08;;;;;;;4.50;2.10;;;28.70;98.00;;;;;;5052933;28;20029;-59
2022/09/10 11:49:54;;;;;;;5.68;2.35;;;28.30;98.70;;;;;;5030774;28;20091;-59
2022/09/10 11:52:21;;;;;;;4.68;1.88;;;27.60;99.40;;;;;;5014087;28;20032;-59
2022/09/10 11:54:47;;;;;;;4.60;1.77;;;27.80;99.50;;;;;;5030610;28;20030;-59
2022/09/10 11:57:46;;;;;;;4.43;1.95;;;27.20;99.70;;;;;;5030119;28;20056;-59
2022/09/10 12:00:17;;;;;;;3.20;1.65;;;27.30;99.60;;;;;;5030589;28;20485;-59
2022/09/10 12:03:03;;;;;;;2.78;1.80;;;27.50;99.70;;;;;;5030616;28;20053;-60
2022/09/10 12:05:42;;;;;;;4.55;1.92;;;27.60;99.40;;;;;;5030735;28;20034;-60
2022/09/10 12:08:16;;;;;;;6.22;2.00;;;27.60;99.70;;;;;;5030972;28;20029;-60
2022/09/10 12:11:04;;;;;;;4.95;2.00;;;27.70;99.40;;;;;;5030364;28;20034;-59
2022/09/10 12:13:32;;;;;;;4.55;1.75;;;27.30;99.90;;;;;;5029910;28;20041;-59
2022/09/10 12:16:04;;;;;;;5.47;1.90;;;27.10;99.80;;;;;;5030241;28;20033;-60
2022/09/10 12:18:41;;;;;;;4.63;1.60;;;27.20;99.90;;;;;;5030258;28;20041;-59
2022/09/10 12:21:28;;;;;;;3.72;1.75;;;27.70;99.90;;;;;;5029996;28;20115;-60
2022/09/10 12:23:55;;;;;;;7.93;2.30;;;28.10;99.80;;;;;;5030467;28;20494;-60
2022/09/10 12:26:21;;;;;;;5.70;2.00;;;27.60;99.70;;;;;;5039414;28;20424;-59
2022/09/10 12:28:48;;;;;;;3.80;1.60;;;27.70;99.40;;;;;;5052219;28;20033;-60
2022/09/10 12:31:18;;;;;;;3.90;1.67;;;27.80;99.50;;;;;;5052271;28;20036;-60
2022/09/10 12:33:44;;;;;;;4.38;1.77;;;28.40;99.20;;;;;;5052185;28;20029;-59
2022/09/10 12:36:35;;;;;;;3.72;1.88;;;28.30;99.30;;;;;;5052352;28;20043;-59
2022/09/10 12:39:27;;;;;;;4.00;1.90;;;28.10;99.60;;;;;;5029583;28;20045;-60
2022/09/10 12:41:56;;;;;;;5.68;1.80;;;28.00;99.90;;;;;;5029273;28;20116;-60
2022/09/10 12:44:27;;;;;;;5.07;1.70;;;28.20;99.90;;;;;;5013439;28;20075;-60
2022/09/10 12:47:29;;;;;;;5.65;1.77;;;27.80;99.60;;;;;;5030345;28;20483;-59
2022/09/10 12:50:01;;;;;;;4.50;1.60;;;27.70;99.90;;;;;;4990738;28;20046;-60
2022/09/10 12:53:06;;;;;;;5.22;1.73;;;28.00;99.30;;;;;;4990141;28;20134;-59
2022/09/10 12:55:51;;;;;;;3.33;1.67;;;27.90;99.70;;;;;;4989780;28;20038;-59
2022/09/10 12:58:22;;;;;;;3.80;1.42;;;27.80;99.90;;;;;;4990067;28;20069;-59
2022/09/10 13:01:26;;;;;;;5.20;1.70;;;27.80;99.90;;;;;;4990210;28;20041;-60
2022/09/10 13:04:01;;;;;;;5.30;1.60;;;27.70;99.90;;;;;;4987908;28;20084;-60
2022/09/10 13:06:37;;;;;;;4.47;1.67;;;27.40;99.90;;;;;;4990173;28;20070;-60
2022/09/10 13:09:15;;;;;;;2.78;1.50;;;27.50;99.90;;;;;;4990005;28;20038;-59
2022/09/10 13:11:45;;;;;;;4.25;1.40;;;27.40;99.90;;;;;;4990053;28;20031;-59